Time;durP1;ratioP1;P1;durP2;ratioP2;P2;SDS_P1;SDS_P2;PMS_P1;PMS_P2;Temp;Humidity;BMP_temperature;BMP_pressure;BME280_temperature;BME280_humidity;BME280_pressure;Samples;Min_cycle;Max_cycle;Signal;HPM_P1;HPM_P2
2022/01/05 00:01:33;;;;;;;;;0.00;0.00;;;;;6.78;69.76;100535.13;5053824;28;45546;-69
2022/01/05 00:03:58;;;;;;;;;1.00;0.00;;;;;6.72;70.05;100537.09;5066919;28;45566;-69
2022/01/05 00:06:23;;;;;;;;;1.00;1.00;;;;;6.54;70.39;100518.47;5053505;28;45993;-69
2022/01/05 00:08:49;;;;;;;;;2.75;0.75;;;;;6.58;70.41;100534.91;5060389;28;46621;-69
2022/01/05 00:11:14;;;;;;;;;0.25;0.00;;;;;6.48;70.51;100539.53;5052188;27;45548;-69
2022/01/05 00:13:39;;;;;;;;;1.75;0.25;;;;;6.36;70.49;100544.25;5051173;28;45502;-69
2022/01/05 00:16:05;;;;;;;;;0.75;0.75;;;;;6.31;70.32;100544.38;5069821;28;46996;-69
2022/01/05 00:18:31;;;;;;;;;2.00;0.50;;;;;6.31;70.64;100560.03;5053673;28;45555;-68
2022/01/05 00:20:57;;;;;;;;;0.00;0.00;;;;;6.15;70.81;100543.09;5055968;28;48248;-69
2022/01/05 00:23:23;;;;;;;;;1.00;1.00;;;;;6.06;70.71;100539.00;5056949;28;45606;-69
2022/01/05 00:25:48;;;;;;;;;0.00;0.00;;;;;6.13;70.71;100563.16;5064090;28;46222;-69
2022/01/05 00:28:14;;;;;;;;;2.00;1.00;;;;;6.04;70.86;100559.03;5055273;28;45747;-69
2022/01/05 00:30:39;;;;;;;;;2.33;1.00;;;;;5.93;70.95;100551.50;5051582;28;48391;-69
2022/01/05 00:33:04;;;;;;;;;1.50;1.00;;;;;5.96;71.10;100572.31;5056308;28;45505;-69
2022/01/05 00:35:30;;;;;;;;;0.00;0.00;;;;;5.91;70.68;100574.19;5056690;28;46302;-69
2022/01/05 00:37:55;;;;;;;;;8.00;2.00;;;;;5.87;70.75;100579.47;5053325;27;45450;-69
2022/01/05 00:40:20;;;;;;;;;0.00;0.00;;;;;5.82;71.14;100578.75;5058379;28;45450;-69
2022/01/05 00:42:46;;;;;;;;;1.00;1.00;;;;;5.77;71.18;100571.03;5057149;28;48575;-69
2022/01/05 00:45:11;;;;;;;;;5.00;1.50;;;;;5.73;70.71;100575.47;5055963;28;45323;-69
2022/01/05 00:47:37;;;;;;;;;1.00;1.00;;;;;5.61;70.46;100572.31;5054959;28;45483;-69
2022/01/05 00:50:03;;;;;;;;;2.00;0.00;;;;;5.66;70.37;100583.50;5052853;28;45411;-69
2022/01/05 00:52:28;;;;;;;;;0.50;0.50;;;;;5.62;70.55;100593.13;5066213;28;45385;-69
2022/01/05 00:54:54;;;;;;;;;1.00;1.00;;;;;5.60;70.58;100591.47;5056353;28;46304;-69
2022/01/05 00:57:19;;;;;;;;;2.75;2.00;;;;;5.54;70.62;100586.41;5055049;28;45901;-69
2022/01/05 00:59:44;;;;;;;;;5.00;2.00;;;;;5.53;70.77;100597.72;5056820;28;45622;-69
2022/01/05 01:02:10;;;;;;;;;1.00;1.00;;;;;5.49;70.78;100600.41;5052448;28;50516;-69
2022/01/05 01:04:35;;;;;;;;;1.00;1.00;;;;;5.48;70.51;100611.72;5053763;28;46020;-69
2022/01/05 01:07:00;;;;;;;;;1.50;0.75;;;;;5.45;70.64;100609.19;5058660;28;45470;-69
2022/01/05 01:09:26;;;;;;;;;5.50;0.25;;;;;5.43;71.07;100612.75;5056489;28;45429;-69
2022/01/05 01:11:51;;;;;;;;;4.00;3.75;;;;;5.40;70.71;100612.78;5052372;28;45712;-69
2022/01/05 01:14:16;;;;;;;;;0.25;0.00;;;;;5.37;70.82;100611.09;5052433;28;46126;-69
2022/01/05 01:16:42;;;;;;;;;3.00;1.00;;;;;5.34;70.79;100613.81;5051967;28;45524;-69
2022/01/05 01:19:07;;;;;;;;;4.25;0.50;;;;;5.32;70.84;100612.97;5053754;28;49900;-68
2022/01/05 01:21:32;;;;;;;;;2.00;0.75;;;;;5.31;70.94;100636.47;5053282;28;45516;-69
2022/01/05 01:23:58;;;;;;;;;6.25;0.50;;;;;5.27;71.34;100633.06;5057879;28;46220;-69
2022/01/05 01:26:29;;;;;;;;;1.25;1.25;;;;;5.26;71.39;100638.31;5033766;28;45455;-69
2022/01/05 01:28:55;;;;;;;;;2.00;0.00;;;;;5.23;71.02;100636.66;5049128;28;45514;-69
2022/01/05 01:31:21;;;;;;;;;5.00;0.75;;;;;5.19;71.29;100635.84;5053255;28;45361;-69
2022/01/05 01:33:46;;;;;;;;;2.50;0.00;;;;;5.14;71.79;100639.44;5053788;28;46110;-69
2022/01/05 01:36:12;;;;;;;;;3.00;0.00;;;;;5.12;71.63;100641.25;5053969;28;45283;-69
2022/01/05 01:38:38;;;;;;;;;3.50;1.00;;;;;5.17;71.73;100657.63;5054086;28;45594;-69
2022/01/05 01:41:03;;;;;;;;;1.50;0.50;;;;;5.14;71.68;100653.31;5055009;28;45384;-68
2022/01/05 01:43:29;;;;;;;;;3.50;1.00;;;;;5.12;71.68;100656.88;5056389;28;46071;-69
2022/01/05 01:45:54;;;;;;;;;0.25;0.25;;;;;5.12;71.49;100672.50;5055444;28;45498;-69
2022/01/05 01:48:19;;;;;;;;;3.00;1.00;;;;;5.07;71.44;100671.75;5055026;28;45457;-68
2022/01/05 01:50:45;;;;;;;;;1.75;1.00;;;;;5.10;71.52;100679.47;5055248;28;45394;-68
2022/01/05 01:53:11;;;;;;;;;1.00;0.00;;;;;5.08;71.57;100686.47;5055434;28;46264;-69
2022/01/05 01:55:37;;;;;;;;;0.25;0.00;;;;;5.08;71.25;100684.72;5055144;28;45904;-68
2022/01/05 01:58:04;;;;;;;;;1.50;0.00;;;;;5.09;71.67;100689.03;5056924;28;45506;-69
2022/01/05 02:00:30;;;;;;;;;0.00;0.00;;;;;5.08;71.66;100695.13;5054142;28;45563;-69
2022/01/05 02:02:55;;;;;;;;;3.25;1.00;;;;;5.06;71.67;100690.84;5054418;28;45853;-69
2022/01/05 02:05:21;;;;;;;;;1.00;1.00;;;;;5.04;71.67;100697.84;5054881;28;45414;-69
2022/01/05 02:07:46;;;;;;;;;4.25;0.00;;;;;5.02;71.87;100702.25;5055145;28;45640;-69
2022/01/05 02:10:12;;;;;;;;;0.25;0.25;;;;;5.00;72.41;100707.44;5056676;28;45315;-68
2022/01/05 02:12:37;;;;;;;;;1.00;1.00;;;;;4.95;72.04;100706.69;5054619;28;46154;-68
2022/01/05 02:15:04;;;;;;;;;1.25;1.00;;;;;4.94;72.21;100716.25;5054359;28;45512;-69
2022/01/05 02:17:43;;;;;;;;;1.75;0.50;;;;;4.92;72.26;100720.66;5054554;28;45439;-69
2022/01/05 02:20:21;;;;;;;;;1.00;1.00;;;;;4.90;72.43;100718.94;5040664;28;45388;-69
2022/01/05 02:22:47;;;;;;;;;4.25;0.00;;;;;4.88;72.74;100728.53;5053890;28;45594;-69
2022/01/05 02:25:14;;;;;;;;;3.50;0.75;;;;;4.85;72.29;100723.38;5056394;28;45412;-68
2022/01/05 02:27:41;;;;;;;;;1.00;0.25;;;;;4.83;72.79;100732.97;5054715;28;45320;-68
2022/01/05 02:30:10;;;;;;;;;1.00;1.00;;;;;4.82;72.28;100733.88;5054499;28;45652;-68
2022/01/05 02:32:35;;;;;;;;;1.50;1.00;;;;;4.80;73.02;100728.69;5054209;28;46512;-68
2022/01/05 02:35:00;;;;;;;;;8.25;0.25;;;;;4.79;73.12;100737.38;5053511;28;45525;-69
2022/01/05 02:37:26;;;;;;;;;3.50;1.00;;;;;4.81;73.12;100733.03;5055675;28;45400;-69
2022/01/05 02:39:51;;;;;;;;;3.50;1.50;;;;;4.82;73.01;100726.91;5064258;28;45540;-68
2022/01/05 02:42:27;;;;;;;;;4.00;0.75;;;;;4.80;72.78;100726.06;5056717;28;45629;-68
2022/01/05 02:44:53;;;;;;;;;1.00;1.00;;;;;4.79;72.57;100729.56;5052463;28;45840;-69
2022/01/05 02:47:18;;;;;;;;;3.75;0.50;;;;;4.77;72.53;100736.56;5056317;28;45628;-68
2022/01/05 02:49:43;;;;;;;;;1.25;1.00;;;;;4.74;72.46;100736.59;5054169;28;45478;-69
2022/01/05 02:52:09;;;;;;;;;5.33;1.33;;;;;4.73;72.67;100732.28;5055857;28;55891;-69
2022/01/05 02:54:34;;;;;;;;;2.50;2.00;;;;;4.71;72.12;100731.47;5053921;28;45453;-68
2022/01/05 02:57:00;;;;;;;;;1.25;0.25;;;;;4.71;72.24;100736.69;5053338;28;45713;-69
2022/01/05 02:59:25;;;;;;;;;2.00;1.00;;;;;4.68;72.44;100739.34;5053505;28;50891;-68
2022/01/05 03:01:51;;;;;;;;;3.50;1.25;;;;;4.66;72.69;100739.38;5053417;28;45476;-68
2022/01/05 03:04:16;;;;;;;;;2.50;2.00;;;;;4.64;72.44;100748.06;5056062;28;45430;-69
2022/01/05 03:06:41;;;;;;;;;2.00;1.00;;;;;4.62;72.21;100745.50;5053366;28;55388;-68
2022/01/05 03:09:06;;;;;;;;;2.50;0.75;;;;;4.61;72.65;100756.81;5053870;28;45860;-68
2022/01/05 03:11:32;;;;;;;;;2.00;1.00;;;;;4.60;72.25;100762.06;5052676;28;49416;-68
2022/01/05 03:13:57;;;;;;;;;4.25;2.00;;;;;4.61;72.76;100755.97;5052583;28;45326;-68
2022/01/05 03:16:22;;;;;;;;;1.00;1.00;;;;;4.61;72.43;100761.16;5054990;28;46521;-69
2022/01/05 03:18:48;;;;;;;;;2.00;1.00;;;;;4.60;72.25;100767.25;5054106;28;45414;-68
2022/01/05 03:21:13;;;;;;;;;1.50;1.00;;;;;4.60;72.66;100775.06;5053504;28;45421;-68
2022/01/05 03:23:39;;;;;;;;;1.75;0.00;;;;;4.60;72.06;100777.69;5054005;28;45490;-68
2022/01/05 03:26:04;;;;;;;;;1.75;1.75;;;;;4.59;72.01;100774.19;5053735;28;45401;-68
2022/01/05 03:28:29;;;;;;;;;1.50;1.00;;;;;4.57;72.16;100783.78;5054162;28;45327;-68
2022/01/05 03:30:55;;;;;;;;;1.00;1.00;;;;;4.57;72.09;100777.72;5053890;28;46043;-68
2022/01/05 03:33:21;;;;;;;;;2.50;1.00;;;;;4.55;72.40;100790.75;5052911;28;49108;-69
2022/01/05 03:35:47;;;;;;;;;2.00;1.00;;;;;4.53;72.11;100802.06;5053283;28;45352;-69
2022/01/05 03:38:17;;;;;;;;;1.50;0.00;;;;;4.52;72.79;100803.81;5053672;28;45533;-68
2022/01/05 03:40:43;;;;;;;;;8.00;1.00;;;;;4.50;72.20;100807.34;5053407;28;45589;-68
2022/01/05 03:43:10;;;;;;;;;1.75;0.75;;;;;4.49;72.77;100800.41;5054852;28;45725;-68
2022/01/05 03:45:36;;;;;;;;;0.00;0.00;;;;;4.49;72.71;100808.22;5053247;28;45361;-69
2022/01/05 03:48:04;;;;;;;;;0.25;0.25;;;;;4.46;72.85;100814.34;5052253;28;45586;-68
2022/01/05 03:50:29;;;;;;;;;6.00;2.00;;;;;4.45;72.59;100826.50;5053249;28;45512;-68
2022/01/05 03:52:54;;;;;;;;;1.00;1.00;;;;;4.43;72.59;100825.63;5053062;28;45268;-69
2022/01/05 03:55:20;;;;;;;;;0.00;0.00;;;;;4.43;72.30;100833.44;5054689;28;47757;-68
2022/01/05 03:57:45;;;;;;;;;3.00;0.50;;;;;4.42;72.47;100833.47;5052605;28;45490;-68
2022/01/05 04:00:12;;;;;;;;;0.00;0.00;;;;;4.41;72.70;100843.03;5052631;28;46036;-68
2022/01/05 04:02:37;;;;;;;;;0.00;0.00;;;;;4.42;72.91;100843.88;5054486;28;45450;-69
2022/01/05 04:05:02;;;;;;;;;0.75;0.00;;;;;4.39;72.77;100838.75;5052823;28;45811;-69
2022/01/05 04:07:28;;;;;;;;;3.25;1.00;;;;;4.38;73.23;100835.25;5061102;28;45579;-71
2022/01/05 04:09:53;;;;;;;;;0.25;0.25;;;;;4.37;72.85;100833.53;5054247;28;46215;-70
2022/01/05 04:12:18;;;;;;;;;3.00;0.00;;;;;4.39;73.25;100841.34;5055866;28;57119;-69
2022/01/05 04:14:44;;;;;;;;;1.50;0.00;;;;;4.38;73.23;100848.28;5053074;28;45298;-69
2022/01/05 04:17:09;;;;;;;;;1.00;1.00;;;;;4.37;73.14;100856.09;5054833;28;47909;-70
2022/01/05 04:19:35;;;;;;;;;1.50;1.00;;;;;4.36;73.12;100851.78;5065832;28;45469;-69
2022/01/05 04:22:01;;;;;;;;;3.50;2.00;;;;;4.33;73.55;100844.03;5054805;28;45437;-69
2022/01/05 04:24:26;;;;;;;;;0.00;0.00;;;;;4.31;73.13;100846.66;5054687;28;45454;-69
2022/01/05 04:26:51;;;;;;;;;0.75;0.50;;;;;4.22;73.79;100835.53;5052351;28;46790;-69
2022/01/05 04:29:17;;;;;;;;;2.50;1.00;;;;;4.27;73.87;100855.38;5052411;28;46407;-69
2022/01/05 04:31:42;;;;;;;;;4.00;1.25;;;;;4.26;73.40;100853.69;5052712;28;45395;-69
2022/01/05 04:34:08;;;;;;;;;2.00;0.00;;;;;4.25;74.25;100851.97;5054034;28;45465;-69
2022/01/05 04:36:33;;;;;;;;;2.00;0.50;;;;;4.25;74.02;100851.97;5050881;28;45654;-69
2022/01/05 04:38:59;;;;;;;;;3.50;1.00;;;;;4.25;74.03;100851.09;5061570;28;46817;-69
2022/01/05 04:41:24;;;;;;;;;1.50;0.00;;;;;4.22;74.44;100853.75;5057478;28;45395;-69
2022/01/05 04:43:49;;;;;;;;;1.25;1.25;;;;;4.22;74.38;100861.53;5052530;28;45357;-69
2022/01/05 04:46:14;;;;;;;;;1.50;1.00;;;;;4.21;74.17;100867.63;5054394;28;45422;-69
2022/01/05 04:48:42;;;;;;;;;2.00;1.00;;;;;4.21;74.62;100868.50;5051738;28;46270;-69
2022/01/05 04:51:07;;;;;;;;;4.50;2.00;;;;;4.20;74.69;100866.78;5049122;28;45473;-69
2022/01/05 04:53:32;;;;;;;;;1.25;0.00;;;;;4.20;74.57;100869.38;5054279;28;45486;-69
2022/01/05 04:55:58;;;;;;;;;3.67;1.00;;;;;4.19;74.29;100868.53;5066739;28;48932;-69
2022/01/05 04:58:23;;;;;;;;;3.00;2.00;;;;;4.16;74.57;100862.50;5053258;28;46180;-69
2022/01/05 05:00:48;;;;;;;;;0.33;0.33;;;;;4.19;74.48;100873.72;5052183;28;52740;-69
2022/01/05 05:03:14;;;;;;;;;2.00;1.25;;;;;4.18;74.49;100887.63;5052663;28;45595;-69
2022/01/05 05:05:39;;;;;;;;;3.00;2.00;;;;;4.15;74.81;100885.03;5051571;28;50396;-69
2022/01/05 05:08:05;;;;;;;;;3.00;3.00;;;;;4.15;74.34;100892.00;5052320;28;46042;-69
2022/01/05 05:10:30;;;;;;;;;0.75;0.50;;;;;4.11;74.23;100888.56;5056673;28;48962;-69
2022/01/05 05:12:55;;;;;;;;;3.00;0.25;;;;;4.11;74.62;100893.75;5055307;28;45429;-69
2022/01/05 05:15:21;;;;;;;;;3.75;1.75;;;;;4.10;74.38;100893.78;5053602;28;47748;-69
2022/01/05 05:17:46;;;;;;;;;5.00;2.00;;;;;4.09;74.80;100902.50;5042985;28;45795;-69
2022/01/05 05:20:12;;;;;;;;;1.75;0.00;;;;;4.07;74.81;100905.13;5042761;28;45390;-69
2022/01/05 05:22:37;;;;;;;;;2.00;2.00;;;;;4.07;74.24;100904.22;5039439;28;45380;-69
2022/01/05 05:25:03;;;;;;;;;4.00;1.25;;;;;4.05;74.51;100912.06;5050886;28;45439;-69
2022/01/05 05:27:29;;;;;;;;;0.25;0.00;;;;;4.05;74.75;100916.41;5048929;28;46280;-69
2022/01/05 05:29:55;;;;;;;;;1.00;1.00;;;;;4.05;74.72;100921.59;5049908;28;45367;-69
2022/01/05 05:32:20;;;;;;;;;2.50;1.00;;;;;4.04;74.53;100912.09;5051037;28;45509;-69
2022/01/05 05:34:45;;;;;;;;;0.75;0.00;;;;;4.02;74.90;100922.53;5038580;28;45617;-69
2022/01/05 05:37:11;;;;;;;;;2.67;0.67;;;;;3.92;74.87;100913.97;5055267;28;49134;-69
2022/01/05 05:39:36;;;;;;;;;2.50;1.00;;;;;3.79;74.86;100888.13;5043061;28;45332;-69
2022/01/05 05:42:01;;;;;;;;;1.25;1.00;;;;;3.97;74.77;100931.22;5046686;28;45478;-69
2022/01/05 05:44:27;;;;;;;;;2.00;1.50;;;;;3.96;75.03;100939.91;5063537;28;45457;-69
2022/01/05 05:46:52;;;;;;;;;2.50;0.75;;;;;3.95;74.89;100946.88;5041549;28;46038;-69
2022/01/05 05:49:17;;;;;;;;;4.00;1.50;;;;;3.90;74.83;100940.84;5035783;28;45510;-69
2022/01/05 05:51:43;;;;;;;;;7.00;1.25;;;;;3.93;74.66;100952.09;5047458;28;45398;-69
2022/01/05 05:54:08;;;;;;;;;0.75;0.00;;;;;3.93;74.70;100938.22;5046966;28;45720;-69
2022/01/05 05:56:33;;;;;;;;;3.75;3.00;;;;;3.93;75.13;100943.44;5041281;28;45811;-69
2022/01/05 05:58:59;;;;;;;;;4.00;0.25;;;;;3.92;75.17;100945.19;5039237;28;45466;-70
2022/01/05 06:01:24;;;;;;;;;0.67;0.67;;;;;3.91;74.93;100951.25;5039724;28;51625;-70
2022/01/05 06:03:49;;;;;;;;;0.00;0.00;;;;;3.89;75.12;100959.94;5040337;28;45471;-69
2022/01/05 06:06:15;;;;;;;;;0.00;0.00;;;;;3.88;75.43;100953.88;5047628;28;61398;-69
2022/01/05 06:08:40;;;;;;;;;4.00;1.00;;;;;3.86;75.58;100958.25;5048689;28;45411;-69
2022/01/05 06:11:06;;;;;;;;;1.00;1.00;;;;;3.82;75.29;100956.56;5045946;28;45447;-69
2022/01/05 06:13:32;;;;;;;;;2.00;2.00;;;;;3.84;75.47;100954.78;5052533;28;45595;-69
2022/01/05 06:15:57;;;;;;;;;2.00;2.00;;;;;3.83;75.65;100954.81;5041649;28;46345;-69
2022/01/05 06:18:23;;;;;;;;;12.75;1.75;;;;;3.81;75.67;100954.84;5055158;28;45313;-69
2022/01/05 06:20:48;;;;;;;;;0.00;0.00;;;;;3.81;75.65;100961.75;5048316;28;45475;-69
2022/01/05 06:23:13;;;;;;;;;0.00;0.00;;;;;3.77;75.74;100955.75;5045395;28;45502;-69
2022/01/05 06:25:39;;;;;;;;;1.00;1.00;;;;;3.80;75.77;100968.69;5052736;28;46108;-69
2022/01/05 06:28:08;;;;;;;;;1.00;1.00;;;;;3.82;75.98;100971.31;5040593;28;45376;-69
2022/01/05 06:30:34;;;;;;;;;1.00;0.00;;;;;3.80;75.61;100968.69;5041659;28;45364;-69
2022/01/05 06:32:59;;;;;;;;;2.00;0.25;;;;;3.83;75.35;100973.88;5041701;28;45308;-69
2022/01/05 06:35:24;;;;;;;;;1.75;1.00;;;;;3.85;75.60;100971.25;5041183;28;46189;-69
2022/01/05 06:37:51;;;;;;;;;3.50;1.00;;;;;3.85;75.44;100981.66;5067106;28;45394;-69
2022/01/05 06:40:16;;;;;;;;;0.00;0.00;;;;;3.85;75.42;100982.50;5052093;28;45345;-69
2022/01/05 06:42:42;;;;;;;;;4.00;3.33;;;;;3.85;75.58;100987.72;5054268;28;45599;-69
2022/01/05 06:45:08;;;;;;;;;2.00;1.00;;;;;3.85;75.45;100987.72;5053819;28;46052;-69
2022/01/05 06:47:33;;;;;;;;;4.00;1.00;;;;;3.85;75.56;100997.25;5054126;28;45344;-69
2022/01/05 06:49:58;;;;;;;;;1.00;0.00;;;;;3.86;75.99;100999.84;5053571;28;45525;-69
2022/01/05 06:52:24;;;;;;;;;1.50;0.25;;;;;3.86;75.92;101010.25;5055371;28;49766;-69
2022/01/05 06:54:49;;;;;;;;;0.75;0.75;;;;;3.89;75.74;101001.53;5054665;28;45398;-69
2022/01/05 06:57:14;;;;;;;;;2.00;1.00;;;;;3.96;76.19;101012.72;5053832;28;45411;-69
2022/01/05 06:59:40;;;;;;;;;2.00;1.00;;;;;4.02;75.86;101018.75;5054351;28;45390;-69
2022/01/05 07:02:05;;;;;;;;;1.75;1.00;;;;;4.01;75.86;101013.53;5054042;28;45388;-69
2022/01/05 07:04:31;;;;;;;;;1.00;0.00;;;;;4.00;75.99;101017.88;5055264;28;46436;-70
2022/01/05 07:06:56;;;;;;;;;1.00;1.00;;;;;3.97;76.35;101019.63;5057161;28;45484;-71
2022/01/05 07:09:22;;;;;;;;;1.00;1.00;;;;;3.96;75.95;101015.31;5053714;28;45297;-70
2022/01/05 07:11:47;;;;;;;;;1.75;1.75;;;;;3.93;75.98;101016.25;5054221;28;45380;-70
2022/01/05 07:14:12;;;;;;;;;1.75;1.00;;;;;3.91;76.12;101024.06;5055110;28;46176;-69
2022/01/05 07:16:38;;;;;;;;;4.25;2.00;;;;;3.84;76.50;101021.53;5054516;28;45314;-68
2022/01/05 07:19:03;;;;;;;;;1.00;1.00;;;;;3.89;76.61;101032.75;5055469;28;45431;-68
2022/01/05 07:21:33;;;;;;;;;2.50;1.50;;;;;3.88;76.58;101037.09;5053834;28;45453;-69
2022/01/05 07:23:58;;;;;;;;;2.50;1.00;;;;;3.87;76.30;101043.16;5054017;28;46211;-68
2022/01/05 07:26:24;;;;;;;;;2.00;2.00;;;;;3.86;76.53;101046.66;5053725;28;45415;-69
2022/01/05 07:28:49;;;;;;;;;1.00;1.00;;;;;3.87;76.78;101050.09;5054057;28;45406;-69
2022/01/05 07:31:14;;;;;;;;;4.75;2.00;;;;;3.84;76.54;101045.78;5054493;28;45534;-69
2022/01/05 07:33:40;;;;;;;;;9.75;8.00;;;;;3.82;76.60;101044.94;5051695;28;47072;-69
2022/01/05 07:36:05;;;;;;;;;13.75;12.00;;;;;3.82;77.00;101050.16;5053021;28;48775;-69
2022/01/05 07:38:31;;;;;;;;;14.00;12.00;;;;;3.82;76.94;101055.34;5053535;28;45490;-69
2022/01/05 07:40:56;;;;;;;;;7.50;7.00;;;;;3.83;76.63;101067.47;5065771;28;45255;-68
2022/01/05 07:43:22;;;;;;;;;1.00;1.00;;;;;3.82;76.56;101070.09;5055267;28;46913;-69
2022/01/05 07:45:49;;;;;;;;;4.50;1.25;;;;;3.83;76.79;101074.41;5053910;28;46014;-69
2022/01/05 07:48:14;;;;;;;;;1.00;1.00;;;;;3.84;77.09;101076.97;5052791;28;45655;-69
2022/01/05 07:50:39;;;;;;;;;5.33;4.00;;;;;3.86;76.75;101077.84;5053163;28;45489;-69
2022/01/05 07:53:05;;;;;;;;;1.25;1.00;;;;;3.89;76.84;101080.41;5055833;28;45438;-69
2022/01/05 07:55:31;;;;;;;;;1.25;0.00;;;;;3.93;76.96;101083.84;5053928;28;46221;-69
2022/01/05 07:58:01;;;;;;;;;6.50;4.00;;;;;3.94;77.08;101082.94;5054584;28;45486;-69
2022/01/05 08:00:26;;;;;;;;;3.00;1.50;;;;;4.04;76.66;101084.59;5053040;28;45371;-68
2022/01/05 08:02:52;;;;;;;;;1.75;1.75;;;;;4.12;76.85;101092.28;5052218;28;50193;-69
2022/01/05 08:05:17;;;;;;;;;1.00;1.00;;;;;4.23;76.84;101094.78;5053464;28;45359;-69
2022/01/05 08:07:43;;;;;;;;;2.00;1.00;;;;;4.32;76.73;101092.94;5062252;27;45402;-69
2022/01/05 08:10:08;;;;;;;;;2.00;1.00;;;;;4.43;76.21;101101.47;5054893;28;45526;-68
2022/01/05 08:12:34;;;;;;;;;5.00;2.00;;;;;4.52;76.46;101105.72;5052768;28;46154;-69
2022/01/05 08:14:59;;;;;;;;;8.25;4.50;;;;;4.59;76.57;101101.28;5054877;28;45339;-69
2022/01/05 08:17:24;;;;;;;;;3.00;1.00;;;;;4.63;76.12;101108.19;5053078;28;45410;-68
2022/01/05 08:19:49;;;;;;;;;5.00;1.50;;;;;4.62;76.12;101112.53;5052998;28;45582;-69
2022/01/05 08:22:15;;;;;;;;;5.00;1.00;;;;;4.68;75.74;101124.59;5054702;28;47311;-69
2022/01/05 08:24:40;;;;;;;;;0.75;0.50;;;;;4.74;75.58;101131.47;5061239;28;47975;-69
2022/01/05 08:27:06;;;;;;;;;4.00;1.50;;;;;4.71;75.62;101114.16;5060729;28;45350;-69
2022/01/05 08:29:31;;;;;;;;;2.50;2.00;;;;;4.85;76.08;101122.63;5060126;28;45519;-68
2022/01/05 08:31:58;;;;;;;;;4.50;1.75;;;;;4.86;75.85;101126.13;5051931;28;46128;-69
2022/01/05 08:34:23;;;;;;;;;3.50;1.00;;;;;5.00;75.40;101134.59;5053742;28;45932;-69
2022/01/05 08:36:49;;;;;;;;;4.00;2.00;;;;;5.11;75.66;101139.66;5053904;28;45521;-69
2022/01/05 08:39:14;;;;;;;;;9.50;4.50;;;;;5.24;75.65;101129.06;5055748;28;45444;-69
2022/01/05 08:41:39;;;;;;;;;1.00;1.00;;;;;5.54;75.39;101134.69;5052504;28;46264;-69
2022/01/05 08:44:05;;;;;;;;;2.50;2.00;;;;;6.16;75.52;101131.91;5054030;28;45285;-69
2022/01/05 08:46:30;;;;;;;;;17.75;13.00;;;;;6.88;74.67;101128.72;5057040;28;45334;-69
2022/01/05 08:48:55;;;;;;;;;10.50;5.25;;;;;7.50;73.94;101123.81;5042152;28;45582;-69
2022/01/05 08:51:21;;;;;;;;;3.75;1.25;;;;;8.47;72.92;101123.97;5041923;28;45364;-69
2022/01/05 08:53:46;;;;;;;;;6.75;3.50;;;;;9.25;71.00;101135.63;5041993;28;45797;-69
2022/01/05 08:56:12;;;;;;;;;6.00;3.25;;;;;9.88;70.22;101128.34;5050412;28;45428;-69
2022/01/05 08:58:38;;;;;;;;;3.25;2.00;;;;;10.67;68.79;101128.19;5039628;28;45329;-69
2022/01/05 09:01:03;;;;;;;;;5.00;2.00;;;;;11.65;67.45;101123.50;5041772;28;45321;-69
2022/01/05 09:03:29;;;;;;;;;3.00;1.25;;;;;12.57;66.31;101130.09;5049752;28;45319;-69
2022/01/05 09:05:54;;;;;;;;;3.00;2.00;;;;;13.38;64.07;101129.84;5050235;28;45247;-69
2022/01/05 09:08:19;;;;;;;;;2.25;2.25;;;;;14.01;62.59;101122.31;5041822;28;47787;-69
2022/01/05 09:10:45;;;;;;;;;2.25;2.25;;;;;14.43;61.46;101128.94;5035606;28;46151;-69
2022/01/05 09:13:11;;;;;;;;;2.25;2.25;;;;;14.68;60.05;101141.75;5043434;28;45427;-69
2022/01/05 09:15:37;;;;;;;;;4.50;3.00;;;;;14.74;58.85;101130.84;5041051;28;45596;-69
2022/01/05 09:18:02;;;;;;;;;2.75;2.00;;;;;14.70;59.04;101145.16;5042385;28;45332;-69
2022/01/05 09:20:28;;;;;;;;;4.25;2.75;;;;;14.79;58.72;101146.47;5055177;28;46236;-69
2022/01/05 09:22:55;;;;;;;;;51.75;42.75;;;;;14.85;59.40;101140.84;5046971;28;45461;-69
2022/01/05 09:25:22;;;;;;;;;3.25;0.00;;;;;14.69;58.07;101155.84;5046942;28;45470;-69
2022/01/05 09:27:48;;;;;;;;;3.00;3.00;;;;;14.70;57.88;101154.88;5049775;28;45352;-69
2022/01/05 09:30:15;;;;;;;;;3.00;2.00;;;;;14.92;56.94;101154.59;5049169;28;46212;-69
2022/01/05 09:32:40;;;;;;;;;5.75;2.75;;;;;15.27;56.29;101157.94;5060495;28;45484;-69
2022/01/05 09:35:09;;;;;;;;;3.25;2.75;;;;;15.75;56.03;101154.31;5040090;28;45443;-69
2022/01/05 09:37:39;;;;;;;;;4.50;2.75;;;;;16.66;54.16;101165.72;5039826;28;45414;-69
2022/01/05 09:42:50;;;;;;;;;2.00;2.00;;;;;18.83;52.58;101167.38;5042518;28;45533;-69
2022/01/05 09:45:15;;;;;;;;;7.25;3.00;;;;;19.61;51.53;101167.06;5047716;28;45477;-70
2022/01/05 09:47:52;;;;;;;;;5.00;2.67;;;;;20.22;50.21;101172.28;5054891;28;45570;-70
2022/01/05 09:50:19;;;;;;;;;75.25;57.25;;;;;20.67;49.68;101188.41;5046086;28;47229;-69
2022/01/05 09:52:46;;;;;;;;;10.75;7.50;;;;;20.76;49.03;101191.19;5038637;28;45952;-70
2022/01/05 09:55:13;;;;;;;;;2.50;2.50;;;;;21.17;47.92;101196.91;5053260;28;45391;-69
2022/01/05 09:57:41;;;;;;;;;4.25;4.00;;;;;21.40;46.70;101205.78;5044074;28;45330;-68
2022/01/05 10:00:08;;;;;;;;;2.50;2.50;;;;;21.54;46.66;101201.00;5043933;28;47325;-69
2022/01/05 10:02:34;;;;;;;;;5.00;4.00;;;;;21.53;46.51;101206.50;5042235;28;45712;-69
2022/01/05 10:05:01;;;;;;;;;6.25;4.00;;;;;21.28;46.11;101203.09;5047230;28;45611;-69
2022/01/05 10:07:26;;;;;;;;;3.50;2.00;;;;;20.90;44.87;101202.63;5053056;28;45331;-69
2022/01/05 10:09:52;;;;;;;;;4.25;3.50;;;;;20.21;45.09;101211.47;5048852;28;46870;-70
2022/01/05 10:12:17;;;;;;;;;4.75;2.75;;;;;19.48;46.84;101204.44;5047925;28;45400;-69
2022/01/05 10:14:45;;;;;;;;;2.75;2.75;;;;;18.40;46.80;101198.75;5041065;28;45361;-69
2022/01/05 10:17:14;;;;;;;;;2.50;2.50;;;;;17.57;46.19;101222.81;5065168;28;45553;-69
2022/01/05 10:19:40;;;;;;;;;2.75;2.50;;;;;16.87;46.97;101233.44;5047520;28;45384;-69
2022/01/05 10:22:27;;;;;;;;;2.00;2.00;;;;;16.09;47.76;101224.81;5040954;28;45490;-69
2022/01/05 10:24:56;;;;;;;;;3.00;3.00;;;;;15.54;48.09;101225.25;5050911;28;45288;-69
2022/01/05 10:27:24;;;;;;;;;4.75;2.25;;;;;15.14;48.83;101234.56;5051956;28;45561;-69
2022/01/05 10:30:05;;;;;;;;;3.00;2.00;;;;;14.81;49.84;101237.19;5056942;28;45551;-69
2022/01/05 10:32:33;;;;;;;;;5.00;3.00;;;;;14.50;49.92;101241.41;5041385;28;45374;-69
2022/01/05 10:35:07;;;;;;;;;2.00;2.00;;;;;14.19;50.76;101250.00;5037863;28;45370;-69
2022/01/05 10:37:34;;;;;;;;;4.00;2.75;;;;;13.88;50.81;101255.09;5053647;28;45458;-69
2022/01/05 10:40:09;;;;;;;;;4.50;3.00;;;;;13.34;51.43;101257.63;5040709;28;46885;-69
2022/01/05 10:42:36;;;;;;;;;2.50;2.50;;;;;12.76;52.10;101250.53;5040544;28;45555;-69
2022/01/05 10:45:05;;;;;;;;;1.00;1.00;;;;;12.35;52.26;101254.94;5041099;28;45476;-69
2022/01/05 10:47:31;;;;;;;;;2.75;1.75;;;;;11.92;52.98;101246.16;5042603;28;45542;-69
2022/01/05 10:49:56;;;;;;;;;3.25;3.00;;;;;11.84;53.53;101260.53;5052253;28;46037;-69
2022/01/05 10:52:33;;;;;;;;;2.00;2.00;;;;;11.82;54.13;101243.97;5041119;28;45567;-69
2022/01/05 10:55:13;;;;;;;;;4.00;2.25;;;;;11.87;54.23;101253.41;5051232;28;45370;-69
2022/01/05 10:57:55;;;;;;;;;1.50;1.50;;;;;11.83;54.64;101253.56;5041569;28;45518;-68
2022/01/05 11:00:52;;;;;;;;;3.75;3.50;;;;;11.77;54.34;101260.75;5041047;28;46190;-68
2022/01/05 11:03:37;;;;;;;;;2.00;2.00;;;;;11.72;54.99;101260.09;5027499;28;45376;-68
2022/01/05 11:06:14;;;;;;;;;7.00;1.00;;;;;11.65;54.75;101263.88;5039768;28;45559;-68
2022/01/05 11:08:55;;;;;;;;;1.00;1.00;;;;;11.59;55.12;101263.25;5041500;28;45645;-68
2022/01/05 11:11:36;;;;;;;;;1.00;1.00;;;;;11.49;54.72;101260.13;5047704;28;45417;-69
2022/01/05 11:14:26;;;;;;;;;4.50;2.00;;;;;11.37;55.01;101253.53;5037428;28;45874;-69
2022/01/05 11:16:52;;;;;;;;;1.00;1.00;;;;;11.38;55.47;101262.28;5053027;28;45543;-68
2022/01/05 11:19:28;;;;;;;;;1.00;1.00;;;;;11.31;55.41;101259.03;5032501;28;45428;-68
2022/01/05 11:22:15;;;;;;;;;3.75;1.75;;;;;11.19;54.83;101247.22;5049613;28;47102;-68
2022/01/05 11:24:46;;;;;;;;;1.00;1.00;;;;;11.17;55.96;101256.94;5045466;28;45712;-68
2022/01/05 11:27:14;;;;;;;;;6.00;2.00;;;;;11.05;55.53;101257.38;5044937;28;45490;-68
2022/01/05 11:29:41;;;;;;;;;2.00;1.25;;;;;10.97;55.44;101252.41;5051115;28;45580;-68
2022/01/05 11:32:09;;;;;;;;;4.00;2.00;;;;;10.88;55.78;101251.88;5063382;28;46431;-69